sensor_id;sensor_type;location;lat;lon;timestamp;pressure;altitude;pressure_sealevel;temperature;humidity
7918;BME280;4004;42.624;23.386;2023-03-13T00:00:46;94337.16;;;2.07;58.19
7918;BME280;4004;42.624;23.386;2023-03-13T00:03:13;94321.59;;;1.86;58.91
7918;BME280;4004;42.624;23.386;2023-03-13T00:05:41;94337.91;;;2.07;58.40
7918;BME280;4004;42.624;23.386;2023-03-13T00:08:08;94340.69;;;2.02;59.20
7918;BME280;4004;42.624;23.386;2023-03-13T00:10:35;94340.19;;;2.00;59.66
7918;BME280;4004;42.624;23.386;2023-03-13T00:13:02;94342.81;;;1.86;59.82
7918;BME280;4004;42.624;23.386;2023-03-13T00:15:29;94342.25;;;1.90;59.97
7918;BME280;4004;42.624;23.386;2023-03-13T00:17:56;94341.53;;;1.84;60.87
7918;BME280;4004;42.624;23.386;2023-03-13T00:20:23;94347.13;;;1.69;61.88
7918;BME280;4004;42.624;23.386;2023-03-13T00:22:51;94337.63;;;1.68;62.31
7918;BME280;4004;42.624;23.386;2023-03-13T00:25:18;94344.59;;;1.63;62.66
7918;BME280;4004;42.624;23.386;2023-03-13T00:27:44;94348.31;;;1.62;62.93
7918;BME280;4004;42.624;23.386;2023-03-13T00:30:12;94356.03;;;1.45;63.62
7918;BME280;4004;42.624;23.386;2023-03-13T00:32:40;94355.59;;;1.38;63.94
7918;BME280;4004;42.624;23.386;2023-03-13T00:35:07;94349.47;;;1.42;64.02
7918;BME280;4004;42.624;23.386;2023-03-13T00:37:34;94352.78;;;1.48;63.85
7918;BME280;4004;42.624;23.386;2023-03-13T00:40:02;94357.81;;;1.50;64.74
7918;BME280;4004;42.624;23.386;2023-03-13T00:42:29;94355.72;;;1.47;65.02
7918;BME280;4004;42.624;23.386;2023-03-13T00:44:56;94359.69;;;1.49;64.56
7918;BME280;4004;42.624;23.386;2023-03-13T00:47:23;94359.47;;;1.45;65.15
7918;BME280;4004;42.624;23.386;2023-03-13T00:49:50;94361.41;;;1.40;64.43
7918;BME280;4004;42.624;23.386;2023-03-13T00:52:17;94355.81;;;1.41;64.48
7918;BME280;4004;42.624;23.386;2023-03-13T00:54:43;94357.41;;;1.42;64.37
7918;BME280;4004;42.624;23.386;2023-03-13T00:57:11;94349.91;;;1.31;64.16
7918;BME280;4004;42.624;23.386;2023-03-13T00:59:38;94348.25;;;1.35;64.64
7918;BME280;4004;42.624;23.386;2023-03-13T01:02:05;94351.13;;;1.38;64.35
7918;BME280;4004;42.624;23.386;2023-03-13T01:04:31;94356.19;;;1.35;64.54
7918;BME280;4004;42.624;23.386;2023-03-13T01:06:58;94360.13;;;1.37;64.34
7918;BME280;4004;42.624;23.386;2023-03-13T01:09:25;94359.84;;;1.39;63.77
7918;BME280;4004;42.624;23.386;2023-03-13T01:11:51;94351.63;;;1.40;63.36
7918;BME280;4004;42.624;23.386;2023-03-13T01:14:19;94357.09;;;1.44;62.67
7918;BME280;4004;42.624;23.386;2023-03-13T01:16:46;94356.09;;;1.40;62.79
7918;BME280;4004;42.624;23.386;2023-03-13T01:19:14;94352.41;;;1.41;62.70
7918;BME280;4004;42.624;23.386;2023-03-13T01:21:43;94350.28;;;1.24;63.48
7918;BME280;4004;42.624;23.386;2023-03-13T01:24:10;94349.78;;;1.22;63.74
7918;BME280;4004;42.624;23.386;2023-03-13T01:26:37;94352.31;;;1.13;63.88
7918;BME280;4004;42.624;23.386;2023-03-13T01:29:04;94351.63;;;1.08;63.71
7918;BME280;4004;42.624;23.386;2023-03-13T01:31:33;94353.03;;;1.00;64.77
7918;BME280;4004;42.624;23.386;2023-03-13T01:34:02;94351.63;;;0.89;65.61
7918;BME280;4004;42.624;23.386;2023-03-13T01:36:29;94361.66;;;0.92;65.74
7918;BME280;4004;42.624;23.386;2023-03-13T01:38:58;94369.75;;;0.81;66.34
7918;BME280;4004;42.624;23.386;2023-03-13T01:41:27;94357.72;;;0.70;66.47
7918;BME280;4004;42.624;23.386;2023-03-13T01:43:54;94361.88;;;0.76;67.20
7918;BME280;4004;42.624;23.386;2023-03-13T01:46:22;94365.09;;;0.73;67.19
7918;BME280;4004;42.624;23.386;2023-03-13T01:48:56;94365.41;;;0.72;66.94
7918;BME280;4004;42.624;23.386;2023-03-13T01:51:27;94372.09;;;0.64;66.93
7918;BME280;4004;42.624;23.386;2023-03-13T01:54:00;94370.53;;;0.63;67.63
7918;BME280;4004;42.624;23.386;2023-03-13T01:56:33;94374.75;;;0.64;67.91
7918;BME280;4004;42.624;23.386;2023-03-13T01:59:01;94378.19;;;0.65;67.77
7918;BME280;4004;42.624;23.386;2023-03-13T02:01:30;94366.59;;;0.60;68.29
7918;BME280;4004;42.624;23.386;2023-03-13T02:04:00;94367.66;;;0.59;69.06
7918;BME280;4004;42.624;23.386;2023-03-13T02:06:28;94371.03;;;0.65;69.24
7918;BME280;4004;42.624;23.386;2023-03-13T02:08:58;94374.25;;;0.62;69.21
7918;BME280;4004;42.624;23.386;2023-03-13T02:11:34;94371.16;;;0.55;69.40
7918;BME280;4004;42.624;23.386;2023-03-13T02:14:03;94349.06;;;0.46;70.17
7918;BME280;4004;42.624;23.386;2023-03-13T02:16:32;94369.97;;;0.47;69.90
7918;BME280;4004;42.624;23.386;2023-03-13T02:19:01;94375.88;;;0.39;71.01
7918;BME280;4004;42.624;23.386;2023-03-13T02:21:37;94381.44;;;0.37;70.99
7918;BME280;4004;42.624;23.386;2023-03-13T02:24:12;94388.66;;;0.32;71.27
7918;BME280;4004;42.624;23.386;2023-03-13T02:26:42;94394.47;;;0.34;71.27
7918;BME280;4004;42.624;23.386;2023-03-13T02:29:09;94384.16;;;0.32;71.33
7918;BME280;4004;42.624;23.386;2023-03-13T02:31:43;94394.22;;;0.30;71.38
7918;BME280;4004;42.624;23.386;2023-03-13T02:34:11;94399.97;;;0.37;71.79
7918;BME280;4004;42.624;23.386;2023-03-13T02:36:40;94390.31;;;0.28;72.44
7918;BME280;4004;42.624;23.386;2023-03-13T02:39:08;94402.66;;;0.32;72.54
7918;BME280;4004;42.624;23.386;2023-03-13T02:41:36;94402.16;;;0.30;71.67
7918;BME280;4004;42.624;23.386;2023-03-13T02:44:04;94409.47;;;0.38;71.07
7918;BME280;4004;42.624;23.386;2023-03-13T02:46:42;94417.03;;;0.26;70.47
7918;BME280;4004;42.624;23.386;2023-03-13T02:49:19;94425.97;;;0.30;70.64
7918;BME280;4004;42.624;23.386;2023-03-13T02:51:47;94428.69;;;0.25;70.72
7918;BME280;4004;42.624;23.386;2023-03-13T02:54:17;94430.47;;;0.30;70.96
7918;BME280;4004;42.624;23.386;2023-03-13T02:56:49;94439.94;;;0.36;70.89
7918;BME280;4004;42.624;23.386;2023-03-13T02:59:18;94435.41;;;0.36;71.00
7918;BME280;4004;42.624;23.386;2023-03-13T03:01:45;94439.94;;;0.36;71.61
7918;BME280;4004;42.624;23.386;2023-03-13T03:04:17;94438.22;;;0.45;72.05
7918;BME280;4004;42.624;23.386;2023-03-13T03:06:44;94434.50;;;0.46;72.37
7918;BME280;4004;42.624;23.386;2023-03-13T03:09:11;94430.00;;;0.47;71.39
7918;BME280;4004;42.624;23.386;2023-03-13T03:11:37;94428.00;;;0.38;70.99
7918;BME280;4004;42.624;23.386;2023-03-13T03:14:04;94437.28;;;0.36;70.67
7918;BME280;4004;42.624;23.386;2023-03-13T03:16:33;94434.47;;;0.27;70.94
7918;BME280;4004;42.624;23.386;2023-03-13T03:18:59;94429.53;;;0.20;70.79
7918;BME280;4004;42.624;23.386;2023-03-13T03:21:26;94438.56;;;0.14;71.36
7918;BME280;4004;42.624;23.386;2023-03-13T03:23:53;94444.88;;;-0.06;72.60
7918;BME280;4004;42.624;23.386;2023-03-13T03:26:20;94456.19;;;0.00;72.88
7918;BME280;4004;42.624;23.386;2023-03-13T03:28:47;94460.97;;;-0.02;73.40
7918;BME280;4004;42.624;23.386;2023-03-13T03:31:14;94466.56;;;-0.09;73.50
7918;BME280;4004;42.624;23.386;2023-03-13T03:33:43;94466.59;;;-0.14;74.27
7918;BME280;4004;42.624;23.386;2023-03-13T03:36:11;94474.53;;;-0.14;74.35
7918;BME280;4004;42.624;23.386;2023-03-13T03:38:39;94480.38;;;-0.17;74.48
7918;BME280;4004;42.624;23.386;2023-03-13T03:41:06;94484.84;;;-0.12;75.06
7918;BME280;4004;42.624;23.386;2023-03-13T03:43:33;94481.91;;;-0.11;75.37
7918;BME280;4004;42.624;23.386;2023-03-13T03:46:00;94487.47;;;-0.12;74.45
7918;BME280;4004;42.624;23.386;2023-03-13T03:48:27;94479.88;;;-0.19;75.25
7918;BME280;4004;42.624;23.386;2023-03-13T03:50:55;94486.50;;;-0.22;75.24
7918;BME280;4004;42.624;23.386;2023-03-13T03:53:22;94506.03;;;-0.17;75.22
7918;BME280;4004;42.624;23.386;2023-03-13T03:55:49;94515.78;;;-0.18;74.87
7918;BME280;4004;42.624;23.386;2023-03-13T03:58:16;94511.00;;;-0.16;74.43
7918;BME280;4004;42.624;23.386;2023-03-13T04:00:43;94516.59;;;-0.17;74.90
7918;BME280;4004;42.624;23.386;2023-03-13T04:03:10;94518.44;;;-0.18;74.72
7918;BME280;4004;42.624;23.386;2023-03-13T04:05:37;94516.03;;;-0.14;74.15
7918;BME280;4004;42.624;23.386;2023-03-13T04:08:05;94515.53;;;-0.16;75.47
7918;BME280;4004;42.624;23.386;2023-03-13T04:10:32;94525.88;;;-0.20;74.74
7918;BME280;4004;42.624;23.386;2023-03-13T04:12:59;94526.13;;;-0.22;75.15
7918;BME280;4004;42.624;23.386;2023-03-13T04:15:26;94521.69;;;-0.26;75.63
7918;BME280;4004;42.624;23.386;2023-03-13T04:17:52;94529.38;;;-0.30;76.80
7918;BME280;4004;42.624;23.386;2023-03-13T04:20:19;94548.84;;;-0.21;77.08
7918;BME280;4004;42.624;23.386;2023-03-13T04:22:46;94540.69;;;-0.24;77.16
7918;BME280;4004;42.624;23.386;2023-03-13T04:25:14;94537.22;;;-0.19;76.02
7918;BME280;4004;42.624;23.386;2023-03-13T04:27:41;94549.34;;;-0.18;75.79
7918;BME280;4004;42.624;23.386;2023-03-13T04:30:09;94551.47;;;-0.15;76.22
7918;BME280;4004;42.624;23.386;2023-03-13T04:32:36;94554.38;;;-0.17;76.13
7918;BME280;4004;42.624;23.386;2023-03-13T04:35:03;94548.31;;;-0.17;76.87
7918;BME280;4004;42.624;23.386;2023-03-13T04:37:30;94548.84;;;-0.21;77.48
7918;BME280;4004;42.624;23.386;2023-03-13T04:39:56;94558.06;;;-0.13;78.03
7918;BME280;4004;42.624;23.386;2023-03-13T04:42:24;94567.22;;;-0.05;77.85
7918;BME280;4004;42.624;23.386;2023-03-13T04:44:51;94570.69;;;-0.10;78.09
7918;BME280;4004;42.624;23.386;2023-03-13T04:47:18;94578.88;;;-0.06;78.33
7918;BME280;4004;42.624;23.386;2023-03-13T04:49:45;94578.81;;;-0.01;78.85
7918;BME280;4004;42.624;23.386;2023-03-13T04:52:11;94583.72;;;0.16;77.88
7918;BME280;4004;42.624;23.386;2023-03-13T04:54:38;94593.97;;;0.23;77.01
7918;BME280;4004;42.624;23.386;2023-03-13T04:57:05;94591.41;;;0.41;76.48
7918;BME280;4004;42.624;23.386;2023-03-13T04:59:33;94591.78;;;0.59;75.51
7918;BME280;4004;42.624;23.386;2023-03-13T05:01:59;94586.25;;;0.79;74.33
7918;BME280;4004;42.624;23.386;2023-03-13T05:04:26;94585.91;;;1.10;73.28
7918;BME280;4004;42.624;23.386;2023-03-13T05:06:53;94591.53;;;1.28;71.84
7918;BME280;4004;42.624;23.386;2023-03-13T05:09:20;94595.16;;;1.56;70.66
7918;BME280;4004;42.624;23.386;2023-03-13T05:11:46;94592.47;;;1.94;67.83
7918;BME280;4004;42.624;23.386;2023-03-13T05:14:14;94593.94;;;2.19;66.41
7918;BME280;4004;42.624;23.386;2023-03-13T05:16:42;94592.66;;;2.49;64.56
7918;BME280;4004;42.624;23.386;2023-03-13T05:19:09;94595.81;;;2.79;62.77
7918;BME280;4004;42.624;23.386;2023-03-13T05:21:36;94600.94;;;2.89;60.71
7918;BME280;4004;42.624;23.386;2023-03-13T05:24:03;94600.53;;;2.82;58.44
7918;BME280;4004;42.624;23.386;2023-03-13T05:26:30;94610.97;;;2.78;57.79
7918;BME280;4004;42.624;23.386;2023-03-13T05:28:56;94614.31;;;2.70;57.86
7918;BME280;4004;42.624;23.386;2023-03-13T05:31:23;94611.47;;;2.94;58.18
7918;BME280;4004;42.624;23.386;2023-03-13T05:33:51;94611.63;;;3.53;56.46
7918;BME280;4004;42.624;23.386;2023-03-13T05:36:18;94615.97;;;3.99;55.66
7918;BME280;4004;42.624;23.386;2023-03-13T05:38:45;94626.19;;;4.28;54.92
7918;BME280;4004;42.624;23.386;2023-03-13T05:41:12;94630.34;;;4.66;54.47
7918;BME280;4004;42.624;23.386;2023-03-13T05:43:38;94626.84;;;5.19;53.35
7918;BME280;4004;42.624;23.386;2023-03-13T05:46:05;94624.41;;;5.49;52.11
7918;BME280;4004;42.624;23.386;2023-03-13T05:48:32;94631.41;;;5.76;51.08
7918;BME280;4004;42.624;23.386;2023-03-13T05:51:00;94632.69;;;6.13;50.03
7918;BME280;4004;42.624;23.386;2023-03-13T05:53:26;94632.22;;;6.29;48.92
7918;BME280;4004;42.624;23.386;2023-03-13T05:55:53;94631.63;;;6.40;48.14
7918;BME280;4004;42.624;23.386;2023-03-13T05:58:20;94632.47;;;6.88;47.68
7918;BME280;4004;42.624;23.386;2023-03-13T06:00:46;94632.47;;;6.88;46.92
7918;BME280;4004;42.624;23.386;2023-03-13T06:03:14;94637.03;;;6.88;47.36
7918;BME280;4004;42.624;23.386;2023-03-13T06:05:40;94646.25;;;7.08;46.58
7918;BME280;4004;42.624;23.386;2023-03-13T06:08:08;94650.25;;;7.31;46.30
7918;BME280;4004;42.624;23.386;2023-03-13T06:10:35;94651.28;;;7.47;45.48
7918;BME280;4004;42.624;23.386;2023-03-13T06:13:02;94645.38;;;7.33;45.95
7918;BME280;4004;42.624;23.386;2023-03-13T06:15:29;94652.19;;;7.13;46.53
7918;BME280;4004;42.624;23.386;2023-03-13T06:17:56;94656.09;;;7.24;46.21
7918;BME280;4004;42.624;23.386;2023-03-13T06:20:22;94658.13;;;7.36;45.64
7918;BME280;4004;42.624;23.386;2023-03-13T06:22:49;94655.63;;;7.61;44.43
7918;BME280;4004;42.624;23.386;2023-03-13T06:25:17;94658.06;;;7.75;43.91
7918;BME280;4004;42.624;23.386;2023-03-13T06:27:44;94657.56;;;7.52;44.09
7918;BME280;4004;42.624;23.386;2023-03-13T06:30:11;94655.78;;;7.26;44.08
7918;BME280;4004;42.624;23.386;2023-03-13T06:32:38;94653.88;;;7.26;44.68
7918;BME280;4004;42.624;23.386;2023-03-13T06:35:05;94660.72;;;7.83;43.70
7918;BME280;4004;42.624;23.386;2023-03-13T06:37:32;94664.00;;;8.10;43.59
7918;BME280;4004;42.624;23.386;2023-03-13T06:39:59;94659.88;;;8.34;42.39
7918;BME280;4004;42.624;23.386;2023-03-13T06:42:27;94646.59;;;8.25;42.94
7918;BME280;4004;42.624;23.386;2023-03-13T06:44:54;94637.34;;;7.93;42.96
7918;BME280;4004;42.624;23.386;2023-03-13T06:47:21;94635.66;;;7.88;43.34
7918;BME280;4004;42.624;23.386;2023-03-13T06:49:47;94639.84;;;8.19;42.64
7918;BME280;4004;42.624;23.386;2023-03-13T06:52:14;94630.94;;;8.27;42.08
7918;BME280;4004;42.624;23.386;2023-03-13T06:54:41;94627.63;;;8.30;42.45
7918;BME280;4004;42.624;23.386;2023-03-13T06:57:08;94631.03;;;8.18;42.48
7918;BME280;4004;42.624;23.386;2023-03-13T06:59:36;94635.41;;;8.23;42.56
7918;BME280;4004;42.624;23.386;2023-03-13T07:02:03;94639.59;;;8.12;43.27
7918;BME280;4004;42.624;23.386;2023-03-13T07:04:30;94631.66;;;8.15;42.21
7918;BME280;4004;42.624;23.386;2023-03-13T07:06:57;94631.53;;;8.54;41.59
7918;BME280;4004;42.624;23.386;2023-03-13T07:09:24;94628.91;;;8.99;41.10
7918;BME280;4004;42.624;23.386;2023-03-13T07:11:50;94630.06;;;9.23;40.72
7918;BME280;4004;42.624;23.386;2023-03-13T07:14:17;94618.69;;;9.63;40.25
7918;BME280;4004;42.624;23.386;2023-03-13T07:16:45;94628.91;;;9.98;39.36
7918;BME280;4004;42.624;23.386;2023-03-13T07:19:12;94624.56;;;10.05;39.71
7918;BME280;4004;42.624;23.386;2023-03-13T07:21:39;94629.97;;;10.33;39.13
7918;BME280;4004;42.624;23.386;2023-03-13T07:24:06;94629.72;;;10.79;38.63
7918;BME280;4004;42.624;23.386;2023-03-13T07:26:33;94623.09;;;11.20;37.48
7918;BME280;4004;42.624;23.386;2023-03-13T07:29:00;94622.50;;;11.43;37.25
7918;BME280;4004;42.624;23.386;2023-03-13T07:31:27;94624.91;;;11.16;37.41
7918;BME280;4004;42.624;23.386;2023-03-13T07:33:55;94627.81;;;10.95;37.46
7918;BME280;4004;42.624;23.386;2023-03-13T07:36:22;94625.66;;;10.85;37.38
7918;BME280;4004;42.624;23.386;2023-03-13T07:38:50;94620.09;;;10.50;37.89
7918;BME280;4004;42.624;23.386;2023-03-13T07:41:17;94626.38;;;10.42;37.55
7918;BME280;4004;42.624;23.386;2023-03-13T07:43:44;94620.75;;;10.47;37.84
7918;BME280;4004;42.624;23.386;2023-03-13T07:46:13;94627.69;;;10.76;37.85
7918;BME280;4004;42.624;23.386;2023-03-13T07:48:41;94631.91;;;10.61;38.34
7918;BME280;4004;42.624;23.386;2023-03-13T07:51:13;94616.25;;;9.98;39.53
7918;BME280;4004;42.624;23.386;2023-03-13T07:53:40;94626.25;;;9.85;39.42
7918;BME280;4004;42.624;23.386;2023-03-13T07:56:09;94642.47;;;9.40;40.63
7918;BME280;4004;42.624;23.386;2023-03-13T07:58:38;94628.81;;;9.20;40.85
7918;BME280;4004;42.624;23.386;2023-03-13T08:01:09;94623.84;;;8.98;41.86
7918;BME280;4004;42.624;23.386;2023-03-13T08:03:36;94611.84;;;8.70;42.53
7918;BME280;4004;42.624;23.386;2023-03-13T08:06:05;94622.00;;;8.44;43.28
7918;BME280;4004;42.624;23.386;2023-03-13T08:08:34;94614.03;;;8.35;43.50
7918;BME280;4004;42.624;23.386;2023-03-13T08:11:01;94611.88;;;8.28;44.40
7918;BME280;4004;42.624;23.386;2023-03-13T08:13:28;94614.69;;;8.11;44.12
7918;BME280;4004;42.624;23.386;2023-03-13T08:16:05;94601.69;;;7.80;44.74
7918;BME280;4004;42.624;23.386;2023-03-13T08:18:33;94602.38;;;7.68;44.88
7918;BME280;4004;42.624;23.386;2023-03-13T08:21:01;94597.50;;;7.70;45.12
7918;BME280;4004;42.624;23.386;2023-03-13T08:23:28;94602.13;;;7.82;45.06
7918;BME280;4004;42.624;23.386;2023-03-13T08:26:00;94598.69;;;7.81;44.42
7918;BME280;4004;42.624;23.386;2023-03-13T08:28:27;94606.50;;;7.86;45.13
7918;BME280;4004;42.624;23.386;2023-03-13T08:30:54;94606.00;;;7.72;45.58
7918;BME280;4004;42.624;23.386;2023-03-13T08:33:20;94605.84;;;7.68;45.43
7918;BME280;4004;42.624;23.386;2023-03-13T08:35:47;94610.50;;;7.51;46.32
7918;BME280;4004;42.624;23.386;2023-03-13T08:38:14;94608.66;;;7.04;46.73
7918;BME280;4004;42.624;23.386;2023-03-13T08:40:40;94619.13;;;6.79;47.97
7918;BME280;4004;42.624;23.386;2023-03-13T08:43:09;94616.75;;;6.78;48.32
7918;BME280;4004;42.624;23.386;2023-03-13T08:45:35;94608.06;;;6.98;47.87
7918;BME280;4004;42.624;23.386;2023-03-13T08:48:02;94620.41;;;7.20;47.23
7918;BME280;4004;42.624;23.386;2023-03-13T08:50:29;94615.63;;;7.35;47.13
7918;BME280;4004;42.624;23.386;2023-03-13T08:52:55;94617.66;;;7.38;46.96
7918;BME280;4004;42.624;23.386;2023-03-13T08:55:22;94612.25;;;7.46;46.52
7918;BME280;4004;42.624;23.386;2023-03-13T08:57:49;94613.13;;;7.30;46.63
7918;BME280;4004;42.624;23.386;2023-03-13T09:00:18;94602.75;;;7.28;46.56
7918;BME280;4004;42.624;23.386;2023-03-13T09:02:45;94609.28;;;7.10;46.77
7918;BME280;4004;42.624;23.386;2023-03-13T09:05:11;94600.97;;;7.02;47.27
7918;BME280;4004;42.624;23.386;2023-03-13T09:07:38;94600.03;;;7.07;47.53
7918;BME280;4004;42.624;23.386;2023-03-13T09:10:06;94600.16;;;7.11;46.90
7918;BME280;4004;42.624;23.386;2023-03-13T09:12:33;94604.22;;;7.17;46.75
7918;BME280;4004;42.624;23.386;2023-03-13T09:15:00;94588.47;;;7.24;46.32
7918;BME280;4004;42.624;23.386;2023-03-13T09:17:28;94601.25;;;7.69;45.78
7918;BME280;4004;42.624;23.386;2023-03-13T09:19:54;94602.59;;;7.63;46.26
7918;BME280;4004;42.624;23.386;2023-03-13T09:22:21;94597.41;;;7.58;46.06
7918;BME280;4004;42.624;23.386;2023-03-13T09:24:48;94600.13;;;7.49;46.78
7918;BME280;4004;42.624;23.386;2023-03-13T09:27:14;94594.59;;;7.54;46.43
7918;BME280;4004;42.624;23.386;2023-03-13T09:29:41;94589.09;;;7.51;46.84
7918;BME280;4004;42.624;23.386;2023-03-13T09:32:09;94586.13;;;7.52;45.61
7918;BME280;4004;42.624;23.386;2023-03-13T09:34:37;94589.34;;;7.37;46.36
7918;BME280;4004;42.624;23.386;2023-03-13T09:37:04;94593.72;;;7.41;45.97
7918;BME280;4004;42.624;23.386;2023-03-13T09:39:31;94599.03;;;7.20;46.92
7918;BME280;4004;42.624;23.386;2023-03-13T09:42:02;94593.81;;;7.24;46.30
7918;BME280;4004;42.624;23.386;2023-03-13T09:44:36;94606.59;;;7.48;46.16
7918;BME280;4004;42.624;23.386;2023-03-13T09:47:08;94602.75;;;7.58;45.95
7918;BME280;4004;42.624;23.386;2023-03-13T09:49:41;94594.63;;;7.75;45.50
7918;BME280;4004;42.624;23.386;2023-03-13T09:52:15;94596.84;;;7.73;44.95
7918;BME280;4004;42.624;23.386;2023-03-13T09:54:45;94586.53;;;7.63;45.88
7918;BME280;4004;42.624;23.386;2023-03-13T09:57:17;94590.72;;;7.73;46.16
7918;BME280;4004;42.624;23.386;2023-03-13T09:59:50;94595.03;;;7.65;45.65
7918;BME280;4004;42.624;23.386;2023-03-13T10:02:25;94588.84;;;7.64;45.93
7918;BME280;4004;42.624;23.386;2023-03-13T10:05:01;94586.13;;;7.52;46.76
7918;BME280;4004;42.624;23.386;2023-03-13T10:07:29;94577.06;;;7.65;46.02
7918;BME280;4004;42.624;23.386;2023-03-13T10:09:55;94576.91;;;7.62;46.15
7918;BME280;4004;42.624;23.386;2023-03-13T10:12:26;94577.28;;;7.81;46.13
7918;BME280;4004;42.624;23.386;2023-03-13T10:15:02;94577.91;;;7.99;45.60
7918;BME280;4004;42.624;23.386;2023-03-13T10:17:34;94575.19;;;7.87;46.04
7918;BME280;4004;42.624;23.386;2023-03-13T10:20:22;94567.66;;;7.59;45.53
7918;BME280;4004;42.624;23.386;2023-03-13T10:22:51;94554.78;;;7.53;45.26
7918;BME280;4004;42.624;23.386;2023-03-13T10:25:26;94557.94;;;7.25;46.26
7918;BME280;4004;42.624;23.386;2023-03-13T10:27:54;94549.22;;;7.37;46.41
7918;BME280;4004;42.624;23.386;2023-03-13T10:30:23;94545.03;;;7.27;46.75
7918;BME280;4004;42.624;23.386;2023-03-13T10:32:53;94535.69;;;7.33;46.84
7918;BME280;4004;42.624;23.386;2023-03-13T10:35:23;94527.88;;;7.28;46.19
7918;BME280;4004;42.624;23.386;2023-03-13T10:38:01;94527.69;;;7.33;47.87
7918;BME280;4004;42.624;23.386;2023-03-13T10:40:28;94532.84;;;7.38;47.00
7918;BME280;4004;42.624;23.386;2023-03-13T10:43:00;94525.97;;;7.29;47.30
7918;BME280;4004;42.624;23.386;2023-03-13T10:45:31;94520.50;;;7.25;47.62
7918;BME280;4004;42.624;23.386;2023-03-13T10:48:01;94523.03;;;7.21;47.12
7918;BME280;4004;42.624;23.386;2023-03-13T10:50:33;94514.25;;;7.21;46.47
7918;BME280;4004;42.624;23.386;2023-03-13T10:53:20;94509.06;;;7.16;46.98
7918;BME280;4004;42.624;23.386;2023-03-13T10:55:47;94508.31;;;7.36;46.16
7918;BME280;4004;42.624;23.386;2023-03-13T10:58:18;94502.72;;;7.50;46.58
7918;BME280;4004;42.624;23.386;2023-03-13T11:00:46;94501.16;;;7.70;46.79
7918;BME280;4004;42.624;23.386;2023-03-13T11:03:16;94507.00;;;7.84;45.86
7918;BME280;4004;42.624;23.386;2023-03-13T11:05:53;94498.59;;;7.95;45.48
7918;BME280;4004;42.624;23.386;2023-03-13T11:08:23;94501.94;;;7.92;45.94
7918;BME280;4004;42.624;23.386;2023-03-13T11:10:53;94496.72;;;7.74;45.87
7918;BME280;4004;42.624;23.386;2023-03-13T11:13:35;94484.03;;;7.83;45.40
7918;BME280;4004;42.624;23.386;2023-03-13T11:16:11;94479.88;;;8.07;45.75
7918;BME280;4004;42.624;23.386;2023-03-13T11:18:50;94482.44;;;8.03;45.41
7918;BME280;4004;42.624;23.386;2023-03-13T11:21:31;94475.31;;;8.07;44.91
7918;BME280;4004;42.624;23.386;2023-03-13T11:24:05;94476.34;;;8.15;45.92
7918;BME280;4004;42.624;23.386;2023-03-13T11:26:36;94464.06;;;8.14;45.99
7918;BME280;4004;42.624;23.386;2023-03-13T11:29:10;94473.69;;;8.27;45.78
7918;BME280;4004;42.624;23.386;2023-03-13T11:31:44;94470.59;;;8.38;44.41
7918;BME280;4004;42.624;23.386;2023-03-13T11:34:16;94461.56;;;8.42;44.66
7918;BME280;4004;42.624;23.386;2023-03-13T11:36:52;94461.84;;;8.49;45.27
7918;BME280;4004;42.624;23.386;2023-03-13T11:39:43;94459.94;;;8.62;45.77
7918;BME280;4004;42.624;23.386;2023-03-13T11:42:30;94449.34;;;8.78;44.38
7918;BME280;4004;42.624;23.386;2023-03-13T11:45:04;94440.19;;;8.79;43.96
7918;BME280;4004;42.624;23.386;2023-03-13T11:47:42;94445.66;;;8.70;44.22
7918;BME280;4004;42.624;23.386;2023-03-13T11:50:17;94436.16;;;8.73;44.20
7918;BME280;4004;42.624;23.386;2023-03-13T11:53:12;94422.97;;;8.80;44.16
7918;BME280;4004;42.624;23.386;2023-03-13T11:55:51;94419.94;;;8.82;43.56
7918;BME280;4004;42.624;23.386;2023-03-13T11:58:34;94427.44;;;8.88;44.50
7918;BME280;4004;42.624;23.386;2023-03-13T12:01:05;94415.16;;;8.87;43.81
7918;BME280;4004;42.624;23.386;2023-03-13T12:03:38;94417.72;;;8.96;43.76
7918;BME280;4004;42.624;23.386;2023-03-13T12:06:18;94412.88;;;9.14;43.00
7918;BME280;4004;42.624;23.386;2023-03-13T12:08:53;94403.63;;;9.11;43.04
7918;BME280;4004;42.624;23.386;2023-03-13T12:11:24;94405.50;;;9.11;43.51
7918;BME280;4004;42.624;23.386;2023-03-13T12:13:58;94393.88;;;9.07;42.71
7918;BME280;4004;42.624;23.386;2023-03-13T12:16:36;94387.88;;;8.98;43.11
7918;BME280;4004;42.624;23.386;2023-03-13T12:19:09;94388.44;;;9.03;43.04
7918;BME280;4004;42.624;23.386;2023-03-13T12:21:41;94377.22;;;9.13;43.26
7918;BME280;4004;42.624;23.386;2023-03-13T12:24:19;94376.34;;;9.09;43.85
7918;BME280;4004;42.624;23.386;2023-03-13T12:26:50;94391.13;;;9.03;43.46
7918;BME280;4004;42.624;23.386;2023-03-13T12:29:28;94379.25;;;9.04;43.57
7918;BME280;4004;42.624;23.386;2023-03-13T12:31:59;94388.09;;;8.92;43.27
7918;BME280;4004;42.624;23.386;2023-03-13T12:34:32;94383.31;;;8.98;43.37
7918;BME280;4004;42.624;23.386;2023-03-13T12:37:08;94370.88;;;9.06;43.31
7918;BME280;4004;42.624;23.386;2023-03-13T12:39:39;94379.25;;;9.17;42.96
7918;BME280;4004;42.624;23.386;2023-03-13T12:42:16;94370.38;;;9.28;42.41
7918;BME280;4004;42.624;23.386;2023-03-13T12:44:45;94374.22;;;9.15;42.95
7918;BME280;4004;42.624;23.386;2023-03-13T12:47:15;94377.53;;;9.24;43.33
7918;BME280;4004;42.624;23.386;2023-03-13T12:50:04;94371.69;;;9.34;43.11
7918;BME280;4004;42.624;23.386;2023-03-13T12:55:51;94377.06;;;9.63;41.93
7918;BME280;4004;42.624;23.386;2023-03-13T12:58:46;94371.13;;;9.69;41.16
7918;BME280;4004;42.624;23.386;2023-03-13T13:01:18;94376.13;;;9.71;41.52
7918;BME280;4004;42.624;23.386;2023-03-13T13:03:51;94380.56;;;9.79;41.49
7918;BME280;4004;42.624;23.386;2023-03-13T13:06:20;94382.03;;;9.77;41.24
7918;BME280;4004;42.624;23.386;2023-03-13T13:09:00;94379.34;;;9.77;41.46
7918;BME280;4004;42.624;23.386;2023-03-13T13:11:54;94382.81;;;9.77;41.25
7918;BME280;4004;42.624;23.386;2023-03-13T13:14:55;94377.72;;;9.72;41.64
7918;BME280;4004;42.624;23.386;2023-03-13T13:17:31;94378.03;;;9.70;41.29
7918;BME280;4004;42.624;23.386;2023-03-13T13:20:25;94380.47;;;9.75;41.08
7918;BME280;4004;42.624;23.386;2023-03-13T13:22:52;94373.44;;;9.71;41.02
7918;BME280;4004;42.624;23.386;2023-03-13T13:25:28;94370.25;;;9.65;41.18
7918;BME280;4004;42.624;23.386;2023-03-13T13:28:10;94364.75;;;9.62;41.42
7918;BME280;4004;42.624;23.386;2023-03-13T13:30:38;94375.47;;;9.74;41.15
7918;BME280;4004;42.624;23.386;2023-03-13T13:33:36;94362.28;;;9.85;40.90
7918;BME280;4004;42.624;23.386;2023-03-13T13:36:39;94371.75;;;9.79;40.98